Bridgewater, NH

7:22 AM EDT on July 31, 2015 (GMT -0400)
Newfound Lake-The Ledges | | Change Station
CLOSE
Current Station
Personal Weather Station
Location: Alexandria, NH
Elevation: 614 ft
Nearby Weather Stations

Elev 614 ft 43.64 °N, 71.78 °W | Updated 2 minutes ago

Partly Cloudy
Partly Cloudy
70.5 °F
Feels Like 70.5 °F
N
0.0
Wind Variable Wind from South

Today
High -- | Low -- °F
--% Chance of Precip.
Yesterday
High -- | Low -- °F
Precip. -- in
5:34 AM 8:11 PM
Full, 100% visible
Pressure 29.79 in
Visibility 0.5 miles
Clouds Overcast 100 ft
Dew Point 70 °F
Humidity 98%
Rainfall 0.00 in
Snow Depth Not available.
UV 0 out of 12
Pollen 5.90 out of 12
Air Quality Not available.
Flu Activity Not available.
METAR K1P1 311115Z AUTO 00000KT 1/2SM FG OVC001 16/16 A2979 RMK AO2 T01600160

More Conditions Fewer Conditions

Pressure 29.79 in
Visibility 0.5 miles
Clouds Overcast 100 ft
Dew Point 70 °F
Humidity 98%
Rainfall 0.00 in
Snow Depth Not available.
UV 0 out of 12
Pollen 5.90 out of 12
Air Quality Not available.
Flu Activity Not available.
METAR K1P1 311115Z AUTO 00000KT 1/2SM FG OVC001 16/16 A2979 RMK AO2 T01600160

More Conditions Fewer Conditions

10-Day Weather Forecast

×

Almanac

Astronomy

Jul. 31, 2015 Rise Set
Actual Time
Civil Twilight
Nautical Twilight
Astronomical Twilight
Moon
Length of Visible Light
Length of Day
Tomorrow will be .
, % of the Moon is Illuminated

Today's Extremes

State Highs State Lows

Community

WunderPhotos

Upload Photos

1,842,645 photos uploaded!

WunderBlogs® & News

Nearby

Air Quality

  Air Quality AQ Index Pollutant
Not available.

Snow Depth

Station Depth Elevation

Earthquake Activity

City Distance Mag. Time & Date
Minimum magnitude displayed is 2.5.

Coastal Water Temperatures

Place Temperature

Stations

Nearby Weather Stations

Station Location Temp. Windchill Dew Point Humidity Wind Precip. Elev Updated Type